Time;durP1;ratioP1;P1;durP2;ratioP2;P2;SDS_P1;SDS_P2;PMS_P1;PMS_P2;Temp;Humidity;BMP_temperature;BMP_pressure;BME280_temperature;BME280_humidity;BME280_pressure;Samples;Min_cycle;Max_cycle;Signal;HPM_P1;HPM_P2
2021/08/25 00:01:59;;;;;;;4.10;2.83;;;13.80;99.90;;;;;;5035204;28;20300;-71
2021/08/25 00:04:25;;;;;;;5.83;3.30;;;13.80;99.90;;;;;;5035122;28;20157;-71
2021/08/25 00:06:50;;;;;;;4.73;3.70;;;13.80;99.90;;;;;;5043238;28;20556;-71
2021/08/25 00:09:16;;;;;;;3.03;2.70;;;13.80;99.90;;;;;;5034856;28;20268;-71
2021/08/25 00:11:41;;;;;;;3.10;2.80;;;13.70;99.90;;;;;;5034773;28;20681;-71
2021/08/25 00:14:07;;;;;;;4.83;2.60;;;13.70;99.90;;;;;;5044552;28;20204;-71
2021/08/25 00:16:32;;;;;;;5.20;3.00;;;13.70;99.90;;;;;;5054782;28;20164;-71
2021/08/25 00:18:58;;;;;;;5.60;2.80;;;13.70;99.90;;;;;;5055253;28;20164;-71
2021/08/25 00:21:23;;;;;;;4.07;3.67;;;13.60;99.90;;;;;;5052740;28;20193;-71
2021/08/25 00:23:49;;;;;;;10.30;3.67;;;13.60;99.90;;;;;;5048787;28;20243;-71
2021/08/25 00:26:14;;;;;;;3.30;3.00;;;13.60;99.90;;;;;;5054414;28;20214;-71
2021/08/25 00:28:40;;;;;;;3.80;2.90;;;13.60;99.90;;;;;;5047181;28;20267;-71
2021/08/25 00:31:05;;;;;;;4.37;2.73;;;13.50;99.90;;;;;;5033870;28;20342;-71
2021/08/25 00:33:31;;;;;;;4.80;3.10;;;13.50;99.90;;;;;;5034626;28;20173;-71
2021/08/25 00:35:56;;;;;;;7.47;2.80;;;13.50;99.90;;;;;;5034255;28;20268;-71
2021/08/25 00:38:22;;;;;;;4.63;3.43;;;13.50;99.90;;;;;;5034342;28;20153;-71
2021/08/25 00:40:48;;;;;;;3.97;3.60;;;13.40;99.90;;;;;;5044423;28;20180;-71
2021/08/25 00:43:13;;;;;;;9.00;3.40;;;13.40;99.90;;;;;;5054215;28;20633;-71
2021/08/25 00:45:41;;;;;;;3.77;2.87;;;13.40;99.90;;;;;;5054191;28;20220;-71
2021/08/25 00:48:07;;;;;;;5.73;3.40;;;13.40;99.90;;;;;;5054310;28;20160;-71
2021/08/25 00:50:35;;;;;;;3.43;3.10;;;13.40;99.90;;;;;;5054161;28;20756;-71
2021/08/25 00:53:02;;;;;;;4.40;3.30;;;13.40;99.90;;;;;;5053970;28;20450;-71
2021/08/25 00:55:28;;;;;;;5.43;3.73;;;13.30;99.90;;;;;;5053972;28;20959;-71
2021/08/25 00:57:54;;;;;;;3.63;3.27;;;13.30;99.90;;;;;;5051446;28;20407;-71
2021/08/25 01:00:19;;;;;;;3.63;3.03;;;13.30;99.90;;;;;;5045961;28;20201;-71
2021/08/25 01:02:55;;;;;;;4.37;3.27;;;13.30;99.90;;;;;;5047366;28;20181;-71
2021/08/25 01:05:22;;;;;;;6.80;3.17;;;13.20;99.90;;;;;;5033812;28;20565;-71
2021/08/25 01:07:48;;;;;;;3.37;2.77;;;13.20;99.90;;;;;;5033991;28;20747;-71
2021/08/25 01:10:31;;;;;;;3.20;2.53;;;13.20;99.90;;;;;;5033678;28;20422;-71
2021/08/25 01:12:58;;;;;;;3.33;2.50;;;13.20;99.90;;;;;;5033391;28;20304;-71
2021/08/25 01:15:29;;;;;;;4.50;3.20;;;13.10;99.90;;;;;;5034382;28;20466;-71
2021/08/25 01:17:56;;;;;;;4.70;2.67;;;13.10;99.90;;;;;;5033757;28;20427;-71
2021/08/25 01:20:24;;;;;;;4.83;2.97;;;13.10;99.90;;;;;;5033255;28;20877;-71
2021/08/25 01:22:50;;;;;;;3.43;2.90;;;13.10;99.90;;;;;;5033489;28;20400;-71
2021/08/25 01:25:17;;;;;;;2.87;2.43;;;13.00;99.90;;;;;;5033449;28;20396;-71
2021/08/25 01:27:50;;;;;;;3.10;2.40;;;13.00;99.90;;;;;;5033437;28;20454;-71
2021/08/25 01:30:17;;;;;;;5.37;3.00;;;13.00;99.90;;;;;;5034178;28;20905;-71
2021/08/25 01:32:42;;;;;;;2.80;2.60;;;13.00;99.90;;;;;;5034235;28;20419;-71
2021/08/25 01:35:09;;;;;;;4.30;2.80;;;12.90;99.90;;;;;;5033109;28;20513;-71
2021/08/25 01:37:35;;;;;;;4.90;3.37;;;12.90;99.90;;;;;;5033191;28;20160;-71
2021/08/25 01:40:01;;;;;;;5.90;3.67;;;12.90;99.90;;;;;;5033153;28;20438;-71
2021/08/25 01:42:27;;;;;;;6.83;3.50;;;12.90;99.90;;;;;;5033147;28;20388;-71
2021/08/25 01:44:53;;;;;;;4.00;2.87;;;12.90;99.90;;;;;;5032865;28;20249;-71
2021/08/25 01:47:19;;;;;;;4.50;3.53;;;12.90;99.90;;;;;;5033199;28;20272;-71
2021/08/25 01:49:46;;;;;;;5.33;3.87;;;12.90;99.90;;;;;;5051297;28;20421;-71
2021/08/25 01:52:12;;;;;;;8.70;4.23;;;12.80;99.90;;;;;;5052850;28;20399;-71
2021/08/25 01:54:38;;;;;;;3.97;3.23;;;12.80;99.90;;;;;;5053005;28;20481;-71
2021/08/25 01:57:06;;;;;;;6.07;3.90;;;12.80;99.90;;;;;;5039616;28;20468;-71
2021/08/25 01:59:32;;;;;;;4.10;2.93;;;12.80;99.90;;;;;;5032763;28;20232;-71
2021/08/25 02:01:57;;;;;;;4.40;3.33;;;12.80;99.90;;;;;;5032190;28;20459;-71
2021/08/25 02:04:23;;;;;;;5.37;3.63;;;12.80;99.90;;;;;;5051943;28;20161;-71
2021/08/25 02:06:49;;;;;;;4.90;3.70;;;12.70;99.90;;;;;;5051464;28;20221;-71
2021/08/25 02:09:15;;;;;;;5.13;3.57;;;12.70;99.90;;;;;;5052229;28;20160;-71
2021/08/25 02:11:40;;;;;;;5.90;3.83;;;12.70;99.90;;;;;;5052610;28;20395;-71
2021/08/25 02:14:06;;;;;;;3.20;2.87;;;12.60;99.90;;;;;;5042517;28;20225;-71
2021/08/25 02:16:31;;;;;;;4.27;3.17;;;12.60;99.90;;;;;;5033210;28;20189;-70
2021/08/25 02:18:57;;;;;;;4.20;3.33;;;12.60;99.90;;;;;;5032594;28;20158;-70
2021/08/25 02:21:23;;;;;;;5.20;3.47;;;12.60;99.90;;;;;;5034185;28;20177;-69
2021/08/25 02:23:49;;;;;;;4.30;3.63;;;12.60;99.90;;;;;;5033307;28;20177;-70
2021/08/25 02:26:16;;;;;;;4.00;3.17;;;12.50;99.90;;;;;;5032080;28;20180;-70
2021/08/25 02:28:46;;;;;;;5.63;3.40;;;12.50;99.90;;;;;;5052355;28;20770;-70
2021/08/25 02:31:13;;;;;;;6.73;3.97;;;12.50;99.90;;;;;;5041150;28;20427;-70
2021/08/25 02:33:40;;;;;;;6.30;3.77;;;12.50;99.90;;;;;;5032437;28;20486;-69
2021/08/25 02:36:07;;;;;;;7.67;5.10;;;12.50;99.90;;;;;;5032244;28;20509;-69
2021/08/25 02:38:34;;;;;;;5.17;3.63;;;12.50;99.90;;;;;;5033910;28;20420;-70
2021/08/25 02:41:00;;;;;;;4.80;3.57;;;12.50;99.90;;;;;;5051396;28;20426;-69
2021/08/25 02:43:26;;;;;;;5.47;2.97;;;12.40;99.90;;;;;;5052197;28;20387;-69
2021/08/25 02:45:52;;;;;;;9.33;3.13;;;12.40;99.90;;;;;;5052138;28;20415;-69
2021/08/25 02:48:17;;;;;;;4.60;3.10;;;12.40;99.90;;;;;;5052415;28;20164;-70
2021/08/25 02:50:43;;;;;;;4.70;3.30;;;12.40;99.90;;;;;;5052015;28;21010;-69
2021/08/25 02:53:08;;;;;;;3.93;2.77;;;12.40;99.90;;;;;;5052129;28;20188;-70
2021/08/25 02:55:34;;;;;;;4.23;2.80;;;12.40;99.90;;;;;;5051208;28;20268;-70
2021/08/25 02:57:59;;;;;;;3.97;3.40;;;12.30;99.90;;;;;;5051231;28;20191;-70
2021/08/25 03:00:26;;;;;;;3.80;3.50;;;12.30;99.90;;;;;;5046931;28;20247;-69
2021/08/25 03:02:51;;;;;;;4.17;2.97;;;12.30;99.90;;;;;;5052098;28;20230;-70
2021/08/25 03:05:17;;;;;;;4.63;3.77;;;12.30;99.90;;;;;;5051991;28;20509;-69
2021/08/25 03:07:43;;;;;;;3.80;2.90;;;12.30;99.90;;;;;;5051928;28;20161;-69
2021/08/25 03:10:09;;;;;;;4.47;3.10;;;12.20;99.90;;;;;;5051989;28;20248;-69
2021/08/25 03:12:35;;;;;;;5.13;3.40;;;12.20;99.90;;;;;;5051130;28;20521;-70
2021/08/25 03:15:01;;;;;;;3.30;3.00;;;12.20;99.90;;;;;;5034712;28;20451;-69
2021/08/25 03:17:27;;;;;;;3.67;2.70;;;12.20;99.90;;;;;;5032338;28;20180;-70
2021/08/25 03:19:52;;;;;;;4.40;3.13;;;12.20;99.90;;;;;;5031863;28;20416;-70
2021/08/25 03:22:18;;;;;;;5.73;3.37;;;12.20;99.90;;;;;;5034004;28;20439;-70
2021/08/25 03:24:43;;;;;;;4.27;3.20;;;12.20;99.90;;;;;;5035657;28;20500;-69
2021/08/25 03:27:09;;;;;;;5.43;4.07;;;12.10;99.90;;;;;;5040710;28;20232;-69
2021/08/25 03:29:35;;;;;;;3.30;3.00;;;12.20;99.90;;;;;;5036293;28;20626;-69
2021/08/25 03:32:00;;;;;;;6.20;4.30;;;12.10;99.90;;;;;;5052644;28;20187;-69
2021/08/25 03:34:26;;;;;;;3.70;3.27;;;12.10;99.90;;;;;;5048995;28;20173;-69
2021/08/25 03:36:52;;;;;;;3.63;3.00;;;12.10;99.90;;;;;;5035485;28;20153;-69
2021/08/25 03:39:18;;;;;;;5.33;3.70;;;12.10;99.90;;;;;;5035366;28;20165;-69
2021/08/25 03:41:43;;;;;;;6.50;3.10;;;12.10;99.90;;;;;;5035528;28;20403;-69
2021/08/25 03:44:09;;;;;;;5.20;3.30;;;12.10;99.90;;;;;;5035297;28;20666;-69
2021/08/25 03:46:35;;;;;;;3.90;2.70;;;12.00;99.90;;;;;;5036255;28;20540;-70
2021/08/25 03:49:00;;;;;;;3.57;3.17;;;12.10;99.90;;;;;;5035971;28;20211;-69
2021/08/25 03:51:26;;;;;;;6.03;3.07;;;12.00;99.90;;;;;;5035304;28;20400;-70
2021/08/25 03:53:51;;;;;;;4.33;3.20;;;12.00;99.90;;;;;;5035200;28;20166;-69
2021/08/25 03:56:17;;;;;;;3.03;2.53;;;12.00;99.90;;;;;;5034282;28;20201;-69
2021/08/25 03:58:42;;;;;;;3.80;2.70;;;12.00;99.90;;;;;;5034572;28;20742;-69
2021/08/25 04:01:08;;;;;;;3.83;2.90;;;12.00;99.90;;;;;;5035274;28;20551;-69
2021/08/25 04:03:34;;;;;;;3.97;3.10;;;12.00;99.90;;;;;;5035472;28;20216;-70
2021/08/25 04:05:59;;;;;;;4.00;2.90;;;11.90;99.90;;;;;;5034725;28;20177;-69
2021/08/25 04:08:25;;;;;;;4.90;2.70;;;11.90;99.90;;;;;;5034210;28;20245;-69
2021/08/25 04:10:50;;;;;;;4.00;3.07;;;11.90;99.90;;;;;;5034176;28;20181;-69
2021/08/25 04:13:16;;;;;;;3.30;2.80;;;11.90;99.90;;;;;;5034121;28;20187;-69
2021/08/25 04:15:41;;;;;;;4.47;2.50;;;11.90;99.90;;;;;;5035133;28;20637;-70
2021/08/25 04:18:07;;;;;;;4.13;2.77;;;11.90;99.90;;;;;;5034818;28;20220;-69
2021/08/25 04:20:33;;;;;;;4.90;2.93;;;11.90;99.90;;;;;;5035197;28;20182;-69
2021/08/25 04:22:58;;;;;;;4.07;3.27;;;11.80;99.90;;;;;;5050929;28;20191;-69
2021/08/25 04:25:24;;;;;;;3.00;2.67;;;11.80;99.90;;;;;;5054736;28;20211;-69
2021/08/25 04:27:50;;;;;;;6.07;3.07;;;11.80;99.90;;;;;;5040513;28;20200;-69
2021/08/25 04:30:15;;;;;;;3.80;3.23;;;11.80;99.90;;;;;;5042526;28;20276;-69
2021/08/25 04:32:41;;;;;;;5.53;3.20;;;11.80;99.90;;;;;;5038026;28;20657;-69
2021/08/25 04:35:06;;;;;;;5.23;3.50;;;11.80;99.90;;;;;;5052794;28;20231;-69
2021/08/25 04:37:32;;;;;;;3.90;3.40;;;11.80;99.90;;;;;;5040975;28;20204;-70
2021/08/25 04:39:58;;;;;;;4.80;2.70;;;11.80;99.90;;;;;;5052529;28;21027;-69
2021/08/25 04:42:23;;;;;;;5.70;3.30;;;11.80;99.90;;;;;;5045754;28;20882;-70
2021/08/25 04:44:49;;;;;;;3.87;3.53;;;11.80;99.90;;;;;;5048970;28;20188;-69
2021/08/25 04:47:14;;;;;;;3.60;3.03;;;11.80;99.90;;;;;;5052976;28;20529;-69
2021/08/25 04:49:40;;;;;;;3.47;3.03;;;11.80;99.90;;;;;;5045536;28;20693;-70
2021/08/25 04:52:05;;;;;;;3.40;2.83;;;11.80;99.90;;;;;;5041728;28;20271;-69
2021/08/25 04:54:31;;;;;;;3.70;3.00;;;11.80;99.90;;;;;;5037878;28;20251;-70
2021/08/25 04:56:57;;;;;;;8.83;3.90;;;11.80;99.90;;;;;;5031939;28;20660;-69
2021/08/25 04:59:22;;;;;;;5.10;3.60;;;11.80;99.90;;;;;;5050046;28;20200;-69
2021/08/25 05:01:48;;;;;;;4.17;3.40;;;11.80;99.90;;;;;;5033082;28;20204;-69
2021/08/25 05:04:13;;;;;;;6.50;4.57;;;11.80;99.90;;;;;;5043296;28;20216;-69
2021/08/25 05:06:39;;;;;;;6.33;3.23;;;11.80;99.90;;;;;;5047355;28;20191;-69
2021/08/25 05:09:05;;;;;;;5.37;3.20;;;11.80;99.90;;;;;;5032787;28;20525;-69
2021/08/25 05:11:30;;;;;;;3.57;3.03;;;11.80;99.90;;;;;;5034452;28;20420;-70
2021/08/25 05:13:56;;;;;;;7.00;3.40;;;11.80;99.90;;;;;;5039789;28;20178;-69
2021/08/25 05:16:21;;;;;;;5.80;4.97;;;11.80;99.90;;;;;;5033543;28;20185;-70
2021/08/25 05:18:47;;;;;;;5.10;3.77;;;11.90;99.90;;;;;;5034517;28;20188;-69
2021/08/25 05:21:13;;;;;;;5.50;3.93;;;11.80;99.90;;;;;;5039437;28;20177;-70
2021/08/25 05:23:38;;;;;;;5.67;3.57;;;11.80;99.90;;;;;;5045781;28;20169;-70
2021/08/25 05:26:05;;;;;;;5.43;3.40;;;11.90;99.90;;;;;;5036242;28;20181;-69
2021/08/25 05:28:31;;;;;;;5.00;3.23;;;11.90;99.90;;;;;;5030350;28;20184;-70
2021/08/25 05:30:57;;;;;;;4.33;3.50;;;12.00;99.90;;;;;;5032733;28;20439;-69
2021/08/25 05:33:23;;;;;;;5.10;3.30;;;12.00;99.90;;;;;;5032684;28;20248;-70
2021/08/25 05:35:48;;;;;;;4.83;3.20;;;12.00;99.90;;;;;;5035111;28;20204;-70
2021/08/25 05:38:14;;;;;;;5.40;3.73;;;12.00;99.90;;;;;;5032457;28;20154;-69
2021/08/25 05:40:40;;;;;;;5.40;4.03;;;12.10;99.90;;;;;;5033242;28;20615;-69
2021/08/25 05:43:05;;;;;;;4.40;3.30;;;12.10;99.90;;;;;;5033373;28;20261;-69
2021/08/25 05:45:31;;;;;;;6.90;4.80;;;12.20;99.90;;;;;;5032526;28;20233;-70
2021/08/25 05:47:57;;;;;;;5.53;3.53;;;12.20;99.90;;;;;;5033809;28;20173;-69
2021/08/25 05:50:23;;;;;;;11.47;4.60;;;12.20;99.90;;;;;;5047334;28;20188;-69
2021/08/25 05:52:49;;;;;;;7.60;4.17;;;12.30;99.90;;;;;;5050050;28;20515;-69
2021/08/25 05:55:14;;;;;;;6.63;4.20;;;12.30;99.90;;;;;;5049075;28;20542;-70
2021/08/25 05:57:45;;;;;;;8.00;4.60;;;12.40;99.90;;;;;;5040419;28;20701;-69
2021/08/25 06:00:13;;;;;;;6.53;4.60;;;12.40;99.90;;;;;;5040182;28;20189;-69
2021/08/25 06:02:38;;;;;;;5.40;4.30;;;12.50;99.90;;;;;;5034241;28;20422;-70
2021/08/25 06:05:04;;;;;;;5.27;4.57;;;12.50;99.90;;;;;;5034733;28;20497;-70
2021/08/25 06:07:30;;;;;;;7.17;4.07;;;12.50;99.90;;;;;;5043648;28;20176;-70
2021/08/25 06:09:55;;;;;;;5.50;4.30;;;12.60;99.90;;;;;;5032685;28;20649;-69
2021/08/25 06:12:21;;;;;;;5.20;3.90;;;12.60;99.90;;;;;;5032729;28;20212;-69
2021/08/25 06:14:46;;;;;;;4.80;3.67;;;12.70;99.90;;;;;;5052720;28;20283;-69
2021/08/25 06:17:12;;;;;;;4.90;3.80;;;12.70;99.90;;;;;;5052625;28;20160;-70
2021/08/25 06:19:37;;;;;;;7.60;4.53;;;12.80;99.90;;;;;;5050356;28;20688;-70
2021/08/25 06:22:03;;;;;;;8.27;4.77;;;12.80;99.90;;;;;;5033131;28;20260;-69
2021/08/25 06:24:28;;;;;;;8.13;4.27;;;12.80;99.90;;;;;;5032293;28;20184;-69
2021/08/25 06:26:54;;;;;;;6.60;4.93;;;12.90;99.90;;;;;;5031676;28;20622;-70
2021/08/25 06:29:19;;;;;;;6.03;4.70;;;12.90;99.90;;;;;;5034110;28;20168;-70
2021/08/25 06:31:45;;;;;;;6.40;4.50;;;13.00;99.90;;;;;;5033015;28;20181;-70
2021/08/25 06:34:11;;;;;;;7.73;4.90;;;13.00;99.90;;;;;;5034791;28;20173;-70
2021/08/25 06:36:36;;;;;;;7.33;4.10;;;13.10;99.90;;;;;;5050116;28;20578;-71
2021/08/25 06:39:02;;;;;;;9.60;5.77;;;13.10;99.90;;;;;;5040699;28;20282;-70
2021/08/25 06:41:27;;;;;;;6.47;4.97;;;13.20;99.90;;;;;;5031208;28;20266;-70
2021/08/25 06:43:53;;;;;;;8.23;4.60;;;13.20;99.90;;;;;;5043536;28;20188;-70
2021/08/25 06:46:18;;;;;;;6.50;4.30;;;13.30;99.90;;;;;;5038617;28;20184;-70
2021/08/25 06:48:44;;;;;;;5.53;4.60;;;13.40;99.90;;;;;;5033805;28;20631;-70
2021/08/25 06:51:10;;;;;;;4.93;3.80;;;13.50;99.90;;;;;;5034917;28;20235;-70
2021/08/25 06:53:35;;;;;;;7.70;3.90;;;13.60;99.90;;;;;;5033500;28;21450;-70
2021/08/25 06:56:01;;;;;;;6.80;4.40;;;13.70;99.90;;;;;;5035509;28;20205;-70
2021/08/25 06:58:27;;;;;;;6.27;4.57;;;13.80;99.90;;;;;;5040658;28;20205;-70
2021/08/25 07:00:54;;;;;;;5.60;4.40;;;13.80;99.90;;;;;;5035579;28;20283;-70
2021/08/25 07:03:20;;;;;;;7.53;5.20;;;13.90;99.90;;;;;;5036581;28;20439;-70
2021/08/25 07:05:45;;;;;;;7.07;5.10;;;14.00;99.90;;;;;;5041915;28;20427;-70
2021/08/25 07:08:11;;;;;;;5.20;4.13;;;14.10;99.90;;;;;;5037646;28;20184;-70
2021/08/25 07:10:36;;;;;;;9.87;4.90;;;14.20;99.90;;;;;;5042726;28;20185;-70
2021/08/25 07:13:02;;;;;;;8.50;4.57;;;14.30;99.90;;;;;;5041580;28;20212;-70
2021/08/25 07:15:28;;;;;;;8.40;4.23;;;14.40;99.90;;;;;;5055760;28;20529;-70
2021/08/25 07:17:53;;;;;;;4.67;3.80;;;14.50;99.90;;;;;;5041687;28;20177;-70
2021/08/25 07:20:19;;;;;;;6.87;4.10;;;14.60;99.90;;;;;;5039762;28;20184;-70
2021/08/25 07:22:45;;;;;;;7.30;4.80;;;14.70;99.90;;;;;;5039144;28;20259;-70
2021/08/25 07:25:11;;;;;;;5.03;4.50;;;14.80;99.90;;;;;;5039809;28;20199;-70
2021/08/25 07:27:39;;;;;;;8.37;4.40;;;14.90;99.90;;;;;;5035310;28;20674;-70
2021/08/25 07:30:05;;;;;;;9.00;4.63;;;15.00;99.90;;;;;;5030830;28;20460;-70
2021/08/25 07:32:31;;;;;;;8.80;5.10;;;15.10;99.90;;;;;;5036532;28;20432;-70
2021/08/25 07:34:56;;;;;;;8.67;4.70;;;15.20;99.90;;;;;;5038820;28;20471;-70
2021/08/25 07:37:22;;;;;;;5.43;4.20;;;15.40;99.90;;;;;;5033860;28;20180;-70
2021/08/25 07:39:47;;;;;;;7.67;4.80;;;15.50;99.90;;;;;;5037228;28;20173;-70
2021/08/25 07:42:13;;;;;;;8.27;5.03;;;15.70;99.90;;;;;;5037351;28;20180;-73
2021/08/25 07:44:39;;;;;;;6.40;4.20;;;15.80;99.90;;;;;;5038307;28;21142;-71
2021/08/25 07:47:04;;;;;;;6.20;4.07;;;15.90;99.90;;;;;;5041023;28;20231;-72
2021/08/25 07:49:30;;;;;;;5.83;4.07;;;16.00;99.90;;;;;;5040031;28;20390;-71
2021/08/25 07:51:58;;;;;;;5.70;4.83;;;16.20;99.90;;;;;;5041214;28;20168;-72
2021/08/25 07:54:23;;;;;;;6.27;4.80;;;16.40;99.90;;;;;;5036998;28;20439;-72
2021/08/25 07:56:49;;;;;;;7.60;4.07;;;16.60;99.90;;;;;;5036579;28;20477;-72
2021/08/25 07:59:14;;;;;;;5.97;4.30;;;16.70;99.90;;;;;;5046538;28;20221;-72
2021/08/25 08:01:40;;;;;;;7.97;4.23;;;16.90;99.90;;;;;;5043396;28;20233;-71
2021/08/25 08:04:05;;;;;;;5.47;3.20;;;17.00;99.90;;;;;;5053565;28;20264;-71
2021/08/25 08:06:31;;;;;;;7.57;4.07;;;17.20;99.90;;;;;;5038690;28;20181;-72
2021/08/25 08:08:56;;;;;;;7.03;4.00;;;17.30;99.90;;;;;;5045049;28;20182;-72
2021/08/25 08:11:22;;;;;;;5.90;3.50;;;17.50;99.90;;;;;;5045746;28;20172;-71
2021/08/25 08:13:47;;;;;;;8.37;4.40;;;17.60;99.90;;;;;;5034819;28;20200;-71
2021/08/25 08:16:19;;;;;;;7.20;4.37;;;17.70;99.90;;;;;;5036865;28;20200;-73
2021/08/25 08:21:38;;;;;;;4.13;3.07;;;18.00;99.90;;;;;;5070069;28;20935;-72
2021/08/25 08:24:04;;;;;;;5.20;2.77;;;18.10;99.90;;;;;;5060478;28;20424;-73
2021/08/25 08:26:29;;;;;;;4.63;2.70;;;18.30;99.90;;;;;;5048809;28;20183;-72
2021/08/25 08:28:56;;;;;;;4.87;2.97;;;18.50;99.90;;;;;;5052083;28;20174;-71
2021/08/25 08:31:22;;;;;;;3.13;2.30;;;18.70;99.90;;;;;;5065467;28;20191;-73
2021/08/25 08:33:48;;;;;;;2.93;1.87;;;18.80;99.90;;;;;;5065014;28;20474;-71
2021/08/25 08:36:13;;;;;;;4.53;3.00;;;19.00;99.90;;;;;;5053531;28;20430;-72
2021/08/25 08:38:39;;;;;;;7.00;2.20;;;19.10;99.90;;;;;;5062739;28;20900;-72
2021/08/25 08:41:04;;;;;;;2.57;1.90;;;19.20;99.40;;;;;;5049984;28;20245;-71
2021/08/25 08:43:30;;;;;;;4.53;2.10;;;19.40;99.80;;;;;;5058437;28;20264;-72
2021/08/25 08:45:56;;;;;;;3.50;2.10;;;19.50;98.90;;;;;;5054009;28;20210;-71
2021/08/25 08:48:22;;;;;;;3.73;1.73;;;19.50;99.90;;;;;;5069067;28;20187;-72
2021/08/25 08:50:48;;;;;;;4.00;2.00;;;19.60;98.00;;;;;;5065860;28;20553;-73
2021/08/25 08:53:16;;;;;;;7.03;2.03;;;19.70;98.80;;;;;;5061473;28;20438;-73
2021/08/25 08:55:42;;;;;;;2.63;1.80;;;19.70;98.70;;;;;;5051280;28;20455;-71
2021/08/25 08:58:12;;;;;;;4.10;2.47;;;19.80;98.10;;;;;;5061074;28;20428;-72
2021/08/25 09:00:39;;;;;;;2.37;1.80;;;19.90;97.80;;;;;;5039918;28;20458;-74
2021/08/25 09:03:20;;;;;;;3.03;2.00;;;20.00;95.10;;;;;;5039063;28;20433;-72
2021/08/25 09:05:45;;;;;;;3.17;1.70;;;20.10;93.90;;;;;;5046080;28;20416;-72
2021/08/25 09:08:11;;;;;;;2.53;1.90;;;20.10;93.50;;;;;;5044577;28;20437;-72
2021/08/25 09:10:38;;;;;;;4.07;2.50;;;20.30;93.00;;;;;;5035774;28;20192;-72
2021/08/25 09:15:43;;;;;;;3.20;1.60;;;20.30;93.60;;;;;;5045011;28;20559;-72
2021/08/25 09:18:13;;;;;;;3.30;1.70;;;20.40;93.60;;;;;;5030507;28;20421;-72
2021/08/25 09:20:44;;;;;;;3.03;1.67;;;20.50;91.70;;;;;;5021194;28;20456;-72
2021/08/25 09:25:55;;;;;;;2.30;1.70;;;20.60;92.40;;;;;;5067778;28;20940;-71
2021/08/25 09:28:38;;;;;;;2.47;2.00;;;20.70;91.40;;;;;;5039218;28;20482;-72
2021/08/25 09:33:46;;;;;;;2.83;1.73;;;20.90;90.80;;;;;;5071457;28;20629;-73
2021/08/25 09:36:14;;;;;;;6.07;2.10;;;21.10;91.00;;;;;;5056966;28;20959;-72
2021/08/25 09:38:50;;;;;;;3.17;2.03;;;21.20;90.20;;;;;;5054304;28;20422;-73
2021/08/25 09:41:16;;;;;;;2.63;2.33;;;21.30;89.70;;;;;;5058017;28;20492;-72
2021/08/25 09:43:44;;;;;;;3.43;2.00;;;21.50;90.50;;;;;;5058017;28;20496;-71
2021/08/25 09:51:39;;;;;;;2.97;2.23;;;21.50;89.00;;;;;;5084707;28;20960;-71
2021/08/25 09:54:08;;;;;;;4.07;2.30;;;21.50;89.10;;;;;;5074166;28;20488;-71
2021/08/25 09:56:36;;;;;;;2.20;1.77;;;21.50;88.70;;;;;;5067518;28;20452;-71
2021/08/25 09:59:04;;;;;;;2.93;1.90;;;21.50;87.50;;;;;;5067427;28;20438;-71
2021/08/25 10:01:30;;;;;;;3.40;2.30;;;21.50;88.00;;;;;;5067095;28;20429;-71
2021/08/25 10:03:56;;;;;;;2.50;1.77;;;21.50;89.70;;;;;;5073932;28;20436;-71
2021/08/25 10:06:23;;;;;;;2.90;2.27;;;21.60;88.40;;;;;;5071450;28;20210;-71
2021/08/25 10:08:50;;;;;;;4.03;2.70;;;21.70;86.80;;;;;;5067923;28;20409;-71
2021/08/25 10:11:18;;;;;;;4.07;2.27;;;21.80;85.60;;;;;;5068134;28;20837;-71
2021/08/25 10:13:43;;;;;;;3.33;2.10;;;21.80;83.30;;;;;;5067742;28;20588;-71
2021/08/25 10:16:12;;;;;;;5.53;2.33;;;21.90;84.80;;;;;;5073531;28;20934;-71
2021/08/25 10:18:40;;;;;;;4.00;2.17;;;21.90;82.80;;;;;;5066249;28;20625;-71
2021/08/25 10:24:10;;;;;;;3.13;2.10;;;21.90;86.10;;;;;;5065206;28;20524;-71
2021/08/25 10:29:53;;;;;;;4.83;2.47;;;21.70;85.50;;;;;;5068516;28;21021;-71
2021/08/25 10:32:19;;;;;;;4.03;2.97;;;21.60;84.20;;;;;;5067304;28;21000;-71
2021/08/25 10:35:04;;;;;;;4.40;2.60;;;21.50;86.90;;;;;;5066966;28;20394;-71
2021/08/25 10:37:30;;;;;;;2.80;2.60;;;21.40;86.70;;;;;;5066555;28;20207;-71
2021/08/25 10:39:57;;;;;;;5.10;3.40;;;21.30;84.80;;;;;;5056136;28;20427;-71
2021/08/25 10:42:46;;;;;;;4.00;2.63;;;21.30;89.00;;;;;;5066481;28;20184;-71
2021/08/25 10:45:12;;;;;;;4.00;2.27;;;21.20;87.50;;;;;;5060499;28;20805;-71
2021/08/25 10:47:58;;;;;;;4.50;2.33;;;21.10;88.20;;;;;;5054272;28;20465;-71
2021/08/25 10:50:44;;;;;;;4.90;3.20;;;21.00;86.60;;;;;;5046470;28;20421;-71
2021/08/25 10:56:11;;;;;;;5.17;2.93;;;20.90;91.00;;;;;;5067938;28;21114;-71
2021/08/25 11:04:00;;;;;;;2.97;2.00;;;20.70;87.50;;;;;;5047379;28;21135;-71
2021/08/25 11:14:37;;;;;;;3.67;2.80;;;20.40;90.50;;;;;;5097789;27;20525;-72
2021/08/25 11:17:05;;;;;;;5.03;2.57;;;20.30;90.10;;;;;;5083143;28;20400;-72
2021/08/25 11:19:34;;;;;;;4.57;2.83;;;20.30;89.50;;;;;;5096896;28;20413;-71
2021/08/25 11:22:01;;;;;;;4.90;2.67;;;20.20;91.70;;;;;;5083530;28;20508;-72
2021/08/25 11:24:36;;;;;;;7.87;4.07;;;20.20;92.70;;;;;;5087305;28;20535;-71
2021/08/25 11:27:03;;;;;;;4.50;3.10;;;20.10;93.70;;;;;;5085754;28;20773;-72
2021/08/25 11:29:28;;;;;;;6.70;3.63;;;20.10;93.90;;;;;;5093853;28;20409;-72
2021/08/25 11:31:54;;;;;;;5.40;2.90;;;20.10;92.40;;;;;;5084244;28;20901;-72
2021/08/25 11:34:21;;;;;;;4.10;2.73;;;20.10;92.70;;;;;;5086139;28;20282;-72
2021/08/25 11:37:04;;;;;;;3.67;2.53;;;20.10;92.20;;;;;;5087253;28;20159;-72
2021/08/25 11:39:31;;;;;;;3.73;2.50;;;20.00;92.20;;;;;;5096502;28;20420;-72
2021/08/25 11:41:57;;;;;;;5.47;3.23;;;20.10;93.10;;;;;;5090449;28;20889;-72
2021/08/25 11:44:43;;;;;;;4.73;2.90;;;20.10;92.80;;;;;;5085914;28;20428;-72
2021/08/25 11:49:50;;;;;;;4.80;3.17;;;20.10;92.70;;;;;;5097128;27;20598;-72
2021/08/25 11:52:18;;;;;;;6.87;3.60;;;20.00;93.90;;;;;;5091138;28;20429;-72
2021/08/25 11:54:43;;;;;;;3.60;2.57;;;20.00;91.90;;;;;;5088080;28;20421;-70
2021/08/25 11:57:12;;;;;;;6.17;4.13;;;20.00;92.40;;;;;;5087444;28;21107;-70
2021/08/25 11:59:58;;;;;;;5.67;3.57;;;20.00;92.90;;;;;;5086547;28;20195;-70
2021/08/25 12:02:24;;;;;;;6.30;3.73;;;20.00;93.20;;;;;;5077660;28;20899;-70
2021/08/25 12:04:50;;;;;;;6.90;4.00;;;20.00;94.50;;;;;;5091578;28;20819;-71
2021/08/25 12:07:17;;;;;;;7.27;4.67;;;20.00;93.30;;;;;;5088993;28;20390;-70
2021/08/25 12:09:43;;;;;;;7.03;4.57;;;20.00;93.50;;;;;;5088852;28;20194;-70
2021/08/25 12:12:09;;;;;;;5.70;3.33;;;20.00;93.00;;;;;;5087485;28;20447;-70
2021/08/25 12:14:52;;;;;;;6.63;4.00;;;20.00;93.30;;;;;;5089115;28;20583;-71
2021/08/25 12:17:18;;;;;;;6.80;4.07;;;20.10;93.30;;;;;;5090638;28;20200;-71
2021/08/25 12:20:01;;;;;;;7.03;3.80;;;20.00;93.50;;;;;;5096849;28;20420;-71
2021/08/25 12:22:30;;;;;;;5.97;3.07;;;20.00;93.50;;;;;;5091254;28;20174;-71
2021/08/25 12:24:57;;;;;;;6.73;3.80;;;20.00;93.90;;;;;;5084184;28;20432;-70
2021/08/25 12:27:23;;;;;;;7.33;3.70;;;20.00;93.40;;;;;;5085136;28;20937;-70
2021/08/25 12:29:49;;;;;;;5.73;3.53;;;20.00;93.10;;;;;;5080616;28;20424;-70
2021/08/25 12:32:15;;;;;;;4.67;2.80;;;20.00;93.30;;;;;;5086578;28;20167;-71
2021/08/25 12:34:58;;;;;;;5.00;3.90;;;20.00;94.80;;;;;;5089261;28;20426;-71
2021/08/25 12:37:48;;;;;;;4.63;3.37;;;20.00;92.90;;;;;;5081373;28;20186;-70
2021/08/25 12:40:14;;;;;;;4.20;3.20;;;20.10;93.40;;;;;;5092382;28;20462;-70
2021/08/25 12:42:42;;;;;;;6.07;3.97;;;20.10;92.60;;;;;;5099358;28;20400;-71
2021/08/25 12:45:09;;;;;;;5.00;3.17;;;20.10;92.20;;;;;;5089406;28;20410;-71
2021/08/25 12:47:34;;;;;;;6.40;3.33;;;20.00;92.60;;;;;;5109186;28;20384;-71
2021/08/25 12:50:00;;;;;;;6.07;3.50;;;20.00;92.10;;;;;;5105470;28;20412;-71
2021/08/25 12:52:27;;;;;;;6.77;3.00;;;20.00;92.00;;;;;;5088553;28;20276;-71
2021/08/25 12:54:52;;;;;;;4.83;2.77;;;20.00;92.70;;;;;;5086835;28;20182;-71
2021/08/25 12:57:18;;;;;;;6.30;3.70;;;20.00;94.80;;;;;;5093840;28;20416;-71
2021/08/25 12:59:43;;;;;;;7.07;3.73;;;20.00;95.40;;;;;;5087001;28;20257;-71
2021/08/25 13:02:09;;;;;;;4.47;3.20;;;20.00;93.40;;;;;;5064419;28;20184;-70
2021/08/25 13:04:36;;;;;;;7.10;3.77;;;20.10;93.30;;;;;;5066035;28;20180;-71
2021/08/25 13:07:01;;;;;;;6.00;3.47;;;20.10;94.30;;;;;;5074541;28;20201;-70
2021/08/25 13:09:27;;;;;;;7.63;4.00;;;20.10;95.50;;;;;;5073600;28;20485;-70
2021/08/25 13:11:53;;;;;;;6.43;4.27;;;20.10;94.60;;;;;;5069129;28;20514;-70
2021/08/25 13:14:18;;;;;;;6.30;4.43;;;20.20;94.70;;;;;;5054461;28;20173;-70
2021/08/25 13:16:44;;;;;;;4.90;3.57;;;20.30;94.70;;;;;;5054556;28;20160;-70
2021/08/25 13:19:09;;;;;;;5.37;3.60;;;20.30;95.80;;;;;;5055099;28;20179;-71
2021/08/25 13:21:35;;;;;;;6.67;4.03;;;20.20;95.70;;;;;;5054760;28;20165;-70
2021/08/25 13:24:00;;;;;;;9.23;4.00;;;20.20;94.60;;;;;;5054987;28;20168;-70
2021/08/25 13:26:26;;;;;;;7.53;4.50;;;20.20;95.10;;;;;;5071838;28;20610;-70
2021/08/25 13:28:52;;;;;;;5.53;3.67;;;20.20;95.80;;;;;;5073439;28;20198;-70